createdAt,value
2022-08-03T00:03:44.734Z,27.93
2022-08-03T00:10:30.389Z,28.23
2022-08-03T00:17:18.456Z,28.44
2022-08-03T00:24:04.019Z,28.31
2022-08-03T00:30:49.585Z,28.69
2022-08-03T00:37:41.527Z,28.63
2022-08-03T00:44:27.400Z,28.70
2022-08-03T00:51:13.194Z,28.86
2022-08-03T00:58:05.141Z,29.17
2022-08-03T01:04:50.920Z,29.32
2022-08-03T01:12:00.968Z,29.17
2022-08-03T01:18:58.577Z,29.37
2022-08-03T01:26:03.068Z,29.52
2022-08-03T01:33:01.837Z,29.61
2022-08-03T01:39:48.883Z,29.42
2022-08-03T01:46:35.165Z,29.63
2022-08-03T01:53:24.968Z,30.09
2022-08-03T02:00:12.609Z,29.48
2022-08-03T02:07:02.584Z,30.12
2022-08-03T02:13:54.786Z,30.21
2022-08-03T02:20:44.339Z,30.11
2022-08-03T02:27:33.421Z,30.38
2022-08-03T02:34:25.560Z,30.52
2022-08-03T02:41:16.585Z,30.27
2022-08-03T03:01:54.333Z,31.33
2022-08-03T03:08:40.961Z,31.41
2022-08-03T03:15:27.688Z,31.75
2022-08-03T03:22:17.132Z,31.92
2022-08-03T03:29:03.684Z,31.98
2022-08-03T03:35:50.249Z,31.86
2022-08-03T03:42:38.627Z,31.61
2022-08-03T03:49:24.891Z,31.45
2022-08-03T03:56:10.594Z,31.87
2022-08-03T04:02:58.840Z,31.05
2022-08-03T04:10:08.862Z,31.88
2022-08-03T04:17:04.440Z,32.16
2022-08-03T04:23:56.568Z,32.31
2022-08-03T04:30:47.845Z,32.55
2022-08-03T04:37:43.222Z,32.39
2022-08-03T04:44:32.838Z,32.98
2022-08-03T04:51:18.884Z,32.97
2022-08-03T04:58:06.589Z,33.32
2022-08-03T05:04:55.229Z,33.63
2022-08-03T05:11:41.603Z,33.67
2022-08-03T05:18:27.232Z,33.31
2022-08-03T05:25:16.989Z,32.68
2022-08-03T05:32:08.152Z,33.60
2022-08-03T05:38:54.016Z,34.11
2022-08-03T05:45:46.017Z,34.19
2022-08-03T05:52:31.591Z,33.99
2022-08-03T05:59:37.625Z,33.71
2022-08-03T06:06:27.329Z,33.88
2022-08-03T06:13:16.100Z,33.21
2022-08-03T06:20:01.738Z,33.43
2022-08-03T06:26:49.844Z,32.82
2022-08-03T06:34:30.034Z,32.64
2022-08-03T06:40:41.881Z,32.34
2022-08-03T06:47:30.214Z,31.89
2022-08-03T06:54:16.455Z,31.57
2022-08-03T07:01:02.150Z,31.52
2022-08-03T07:07:50.287Z,31.33
2022-08-03T07:14:36.282Z,31.00
2022-08-03T07:21:21.841Z,30.60
2022-08-03T07:28:10.089Z,30.35
2022-08-03T07:35:00.508Z,29.82
2022-08-03T07:41:46.278Z,29.39
2022-08-03T07:48:34.531Z,28.96
2022-08-03T07:55:21.992Z,28.45
2022-08-03T08:02:07.566Z,28.82
2022-08-03T08:08:59.570Z,28.85
2022-08-03T08:15:45.433Z,28.67
2022-08-03T08:22:32.751Z,28.86
2022-08-03T08:29:23.228Z,28.09
2022-08-03T08:36:14.822Z,28.15
2022-08-03T08:43:00.838Z,28.01
2022-08-03T08:50:08.897Z,27.75
2022-08-03T08:56:57.216Z,27.59
2022-08-03T09:03:43.142Z,27.22
2022-08-03T09:10:31.444Z,26.72
2022-08-03T09:17:17.718Z,26.54
2022-08-03T09:24:10.503Z,25.97
2022-08-03T09:31:11.261Z,26.04
2022-08-03T09:38:14.283Z,25.72
2022-08-03T09:45:00.611Z,25.56
2022-08-03T09:52:32.074Z,24.89
2022-08-03T09:58:54.896Z,24.71
2022-08-03T10:05:44.646Z,24.32
2022-08-03T10:12:33.301Z,24.39
2022-08-03T10:19:19.824Z,24.34
2022-08-03T10:26:07.762Z,24.10
2022-08-03T10:32:59.570Z,23.75
2022-08-03T10:39:56.294Z,23.41
2022-08-03T10:46:45.383Z,23.81
2022-08-03T10:53:54.132Z,23.09
2022-08-03T11:00:53.531Z,23.33
2022-08-03T11:07:39.147Z,22.96
2022-08-03T11:14:27.472Z,23.36
2022-08-03T11:21:13.194Z,22.61
2022-08-03T11:28:30.646Z,22.41
2022-08-03T11:35:20.912Z,22.25
2022-08-03T11:42:48.314Z,22.35
2022-08-03T11:49:34.201Z,21.77
2022-08-03T11:56:22.908Z,21.20
2022-08-03T12:03:11.174Z,21.13
2022-08-03T12:10:11.897Z,20.88
2022-08-03T12:16:59.991Z,20.91
2022-08-03T12:23:46.679Z,21.35
2022-08-03T12:30:32.288Z,20.84
2022-08-03T12:37:23.727Z,20.68
2022-08-03T12:44:11.707Z,20.45
2022-08-03T12:51:12.520Z,20.54
2022-08-03T12:58:00.908Z,20.20
2022-08-03T13:04:47.352Z,20.11
2022-08-03T13:11:57.736Z,20.46
2022-08-03T13:18:41.816Z,20.32
2022-08-03T13:25:27.404Z,19.89
2022-08-03T13:32:14.018Z,20.43
2022-08-03T13:39:02.106Z,19.96
2022-08-03T13:45:53.611Z,20.51
2022-08-03T13:52:42.409Z,20.42
2022-08-03T13:59:31.015Z,19.76
2022-08-03T14:06:16.487Z,20.09
2022-08-03T14:13:02.532Z,19.84
2022-08-03T14:19:53.367Z,19.76
2022-08-03T14:26:39.552Z,19.91
2022-08-03T14:33:26.660Z,20.22
2022-08-03T14:40:15.179Z,19.96
2022-08-03T14:47:01.145Z,20.46
2022-08-03T14:53:46.757Z,20.30
2022-08-03T15:00:34.909Z,20.17
2022-08-03T15:07:20.916Z,20.23
2022-08-03T15:14:09.440Z,20.11
2022-08-03T15:20:57.689Z,19.85
2022-08-03T15:28:03.759Z,20.32
2022-08-03T15:34:51.298Z,19.77
2022-08-03T15:41:39.513Z,20.29
2022-08-03T15:48:26.655Z,20.28
2022-08-03T15:55:15.866Z,19.72
2022-08-03T16:02:05.230Z,20.11
2022-08-03T16:08:51.229Z,19.79
2022-08-03T16:15:38.994Z,19.62
2022-08-03T16:22:27.829Z,19.61
2022-08-03T16:29:23.105Z,19.92
2022-08-03T16:36:10.097Z,19.74
2022-08-03T16:42:58.415Z,19.43
2022-08-03T16:49:55.209Z,19.62
2022-08-03T16:56:41.994Z,19.66
2022-08-03T17:03:42.418Z,19.16
2022-08-03T17:10:36.886Z,19.69
2022-08-03T17:17:37.734Z,19.48
2022-08-03T17:24:42.911Z,19.83
2022-08-03T17:31:32.079Z,19.92
2022-08-03T17:38:32.036Z,19.28
2022-08-03T17:45:24.991Z,19.33
2022-08-03T17:52:38.122Z,19.24
2022-08-03T17:59:50.310Z,19.16
2022-08-03T18:06:56.298Z,19.72
2022-08-03T18:13:57.701Z,20.19
2022-08-03T18:20:45.634Z,19.53
2022-08-03T18:27:42.684Z,19.58
2022-08-03T18:34:34.474Z,19.58
2022-08-03T18:41:33.681Z,19.46
2022-08-03T18:48:30.061Z,19.45
2022-08-03T18:55:32.878Z,19.59
2022-08-03T19:02:31.834Z,19.97
2022-08-03T19:09:29.113Z,20.02
2022-08-03T19:16:24.180Z,20.20
2022-08-03T19:23:11.837Z,20.14
2022-08-03T19:30:14.127Z,20.42
2022-08-03T19:37:08.177Z,20.80
2022-08-03T19:44:04.893Z,21.14
2022-08-03T19:50:56.610Z,21.13
2022-08-03T19:57:49.599Z,21.28
2022-08-03T20:04:35.579Z,21.48
2022-08-03T20:11:28.453Z,21.72
2022-08-03T20:18:16.963Z,21.75
2022-08-03T20:25:06.024Z,22.19
2022-08-03T20:31:54.042Z,22.38
2022-08-03T20:38:47.053Z,22.61
2022-08-03T20:45:59.685Z,22.68
2022-08-03T20:52:49.394Z,23.33
2022-08-03T20:59:50.461Z,23.01
2022-08-03T21:06:41.781Z,23.38
2022-08-03T21:13:45.305Z,23.74
2022-08-03T21:20:35.262Z,23.68
2022-08-03T21:27:21.136Z,23.76
2022-08-03T21:34:09.953Z,23.90
2022-08-03T21:40:56.948Z,24.20
2022-08-03T21:47:45.065Z,24.65
2022-08-03T21:54:43.693Z,24.76
2022-08-03T22:01:35.286Z,24.78
2022-08-03T22:08:21.645Z,24.55
2022-08-03T22:15:13.500Z,24.74
2022-08-03T22:21:59.265Z,24.78
2022-08-03T22:28:45.792Z,24.83
2022-08-03T22:35:44.468Z,25.39
2022-08-03T22:42:35.167Z,25.42
2022-08-03T22:49:21.029Z,25.23
2022-08-03T22:56:10.527Z,25.69
2022-08-03T23:02:58.321Z,25.60
2022-08-03T23:09:47.083Z,26.00
2022-08-03T23:16:40.695Z,26.37
2022-08-03T23:23:26.936Z,26.44
2022-08-03T23:30:15.657Z,26.66
2022-08-03T23:37:09.057Z,26.68
2022-08-03T23:43:55.935Z,27.47
2022-08-03T23:50:48.749Z,27.93
2022-08-03T23:57:49.847Z,28.27
